createdAt,value
2023-11-30T00:00:17.295Z,3.924491
2023-11-30T00:05:16.338Z,2.089090
2023-11-30T00:10:17.214Z,0.420780
2023-11-30T00:15:16.005Z,0.051491
2023-11-30T00:20:16.110Z,0.002278
2023-11-30T00:25:15.964Z,0.002316
2023-11-30T00:30:15.823Z,0.000000
2023-11-30T00:35:16.090Z,0.000000
2023-11-30T00:40:15.867Z,0.000000
2023-11-30T00:45:16.266Z,0.000000
2023-11-30T00:50:16.510Z,0.000000
2023-11-30T00:55:15.847Z,0.000000
2023-11-30T01:00:16.751Z,0.000000
2023-11-30T01:05:16.750Z,0.000000
2023-11-30T01:10:16.117Z,0.000000
2023-11-30T01:15:16.978Z,0.000000
2023-11-30T01:20:16.288Z,0.000000
2023-11-30T01:25:16.703Z,0.000000
2023-11-30T01:30:16.290Z,0.000000
2023-11-30T01:35:16.736Z,0.000000
2023-11-30T01:40:16.644Z,0.000000
2023-11-30T01:45:16.752Z,0.000000
2023-11-30T01:50:15.833Z,0.000000
2023-11-30T01:55:16.123Z,0.000000
2023-11-30T02:00:16.422Z,0.000000
2023-11-30T02:05:16.228Z,0.000000
2023-11-30T02:10:17.104Z,0.000000
2023-11-30T02:15:16.536Z,0.000000
2023-11-30T02:20:16.442Z,0.000000
2023-11-30T02:25:15.909Z,0.000000
2023-11-30T02:30:16.472Z,0.000000
2023-11-30T02:35:16.357Z,0.000000
2023-11-30T02:40:16.482Z,0.000000
2023-11-30T02:45:32.316Z,0.000000
2023-11-30T02:50:15.880Z,0.000000
2023-11-30T02:55:16.452Z,0.000000
2023-11-30T03:00:16.752Z,0.000000
2023-11-30T03:05:15.956Z,0.000000
2023-11-30T03:10:16.047Z,0.000000
2023-11-30T03:15:17.106Z,0.000000
2023-11-30T03:20:16.436Z,0.008834
2023-11-30T03:25:16.089Z,0.000000
2023-11-30T03:30:16.216Z,0.000000
2023-11-30T03:35:16.840Z,0.000000
2023-11-30T03:40:15.947Z,0.000000
2023-11-30T03:45:18.579Z,0.000000
2023-11-30T03:50:16.231Z,0.000000
2023-11-30T03:55:17.983Z,0.000000
2023-11-30T04:00:16.117Z,0.000000
2023-11-30T04:05:17.749Z,0.000000
2023-11-30T04:10:15.920Z,0.000000
2023-11-30T04:15:16.110Z,0.000000
2023-11-30T04:20:17.356Z,0.000000
2023-11-30T04:25:15.793Z,0.000000
2023-11-30T04:30:16.007Z,0.000000
2023-11-30T04:35:17.116Z,0.000000
2023-11-30T04:40:16.222Z,0.000000
2023-11-30T04:45:16.042Z,0.000000
2023-11-30T04:50:16.170Z,0.000000
2023-11-30T04:55:15.995Z,0.000000
2023-11-30T05:00:15.773Z,0.000000
2023-11-30T05:05:16.244Z,0.000000
2023-11-30T05:10:16.589Z,0.000000
2023-11-30T05:15:15.892Z,0.000000
2023-11-30T05:20:15.745Z,0.000000
2023-11-30T05:25:15.944Z,0.000000
2023-11-30T05:30:16.500Z,0.000000
2023-11-30T05:35:16.552Z,0.000000
2023-11-30T05:40:16.214Z,0.000000
2023-11-30T05:45:15.897Z,0.000000
2023-11-30T05:50:16.054Z,0.000000
2023-11-30T05:55:16.534Z,0.000000
2023-11-30T06:00:16.871Z,0.000000
2023-11-30T06:05:17.097Z,0.000000
2023-11-30T06:10:15.999Z,0.000000
2023-11-30T06:15:17.451Z,0.000000
2023-11-30T06:20:16.142Z,0.000000
2023-11-30T06:25:16.252Z,0.000000
2023-11-30T06:30:15.986Z,0.000000
2023-11-30T06:35:16.896Z,0.000000
2023-11-30T06:40:16.341Z,0.000000
2023-11-30T06:45:16.698Z,0.000000
2023-11-30T06:50:16.367Z,0.000000
2023-11-30T06:55:16.571Z,0.000000
2023-11-30T07:00:16.889Z,0.002322
2023-11-30T07:05:15.874Z,0.005660
2023-11-30T07:10:16.131Z,0.000000
2023-11-30T07:15:16.631Z,0.000000
2023-11-30T07:20:17.384Z,0.000000
2023-11-30T07:25:16.369Z,0.000000
2023-11-30T07:30:16.053Z,0.000000
2023-11-30T07:35:16.209Z,0.000000
2023-11-30T07:40:16.594Z,0.000000
2023-11-30T07:45:17.424Z,0.000000
2023-11-30T07:50:16.003Z,0.000000
2023-11-30T07:55:16.242Z,0.000000
2023-11-30T08:00:17.195Z,0.000000
2023-11-30T08:05:15.837Z,0.000000
2023-11-30T08:10:16.727Z,0.000000
2023-11-30T08:15:16.042Z,0.002246
2023-11-30T08:20:16.347Z,0.000000
2023-11-30T08:25:16.125Z,0.000000
2023-11-30T08:30:16.602Z,0.000000
2023-11-30T08:35:16.027Z,0.000000
2023-11-30T08:40:18.355Z,0.000000
2023-11-30T08:45:18.065Z,0.000000
2023-11-30T08:50:16.517Z,0.000000
2023-11-30T08:55:16.618Z,0.000000
2023-11-30T09:00:20.401Z,0.000000
2023-11-30T09:05:16.664Z,0.000000
2023-11-30T09:10:16.090Z,0.000000
2023-11-30T09:15:16.445Z,0.000000
2023-11-30T09:20:16.021Z,0.000000
2023-11-30T09:25:15.974Z,0.000000
2023-11-30T09:30:16.143Z,0.000000
2023-11-30T09:35:16.277Z,0.000000
2023-11-30T09:40:15.967Z,0.000000
2023-11-30T09:45:16.336Z,0.000000
2023-11-30T09:50:15.944Z,0.000000
2023-11-30T09:55:16.258Z,0.000000
2023-11-30T10:00:18.065Z,0.000000
2023-11-30T10:05:17.756Z,0.000000
2023-11-30T10:10:15.864Z,0.000000
2023-11-30T10:15:16.059Z,0.000000
2023-11-30T10:20:17.196Z,0.000000
2023-11-30T10:25:15.932Z,0.000000
2023-11-30T10:30:17.919Z,0.000000
2023-11-30T10:35:16.067Z,0.000000
2023-11-30T10:40:19.159Z,0.000000
2023-11-30T10:45:17.500Z,0.000000
2023-11-30T10:50:16.345Z,0.000000
2023-11-30T10:55:15.725Z,0.002267
2023-11-30T11:00:16.490Z,0.000000
2023-11-30T11:05:15.742Z,0.000000
2023-11-30T11:10:19.789Z,0.000000
2023-11-30T11:15:18.143Z,0.000000
2023-11-30T11:20:18.009Z,0.000000
2023-11-30T11:25:16.724Z,0.000000
2023-11-30T11:30:15.923Z,0.000000
2023-11-30T11:35:15.777Z,0.000000
2023-11-30T11:40:17.030Z,0.000000
2023-11-30T11:45:16.983Z,0.000000
2023-11-30T11:50:16.701Z,0.000000
2023-11-30T11:55:16.643Z,0.000000
2023-11-30T12:00:15.981Z,0.000000
2023-11-30T12:05:15.940Z,0.000000
2023-11-30T12:10:15.744Z,0.000000
2023-11-30T12:15:16.704Z,0.000000
2023-11-30T12:20:16.143Z,0.000000
2023-11-30T12:25:16.363Z,0.000000
2023-11-30T12:30:16.066Z,0.000000
2023-11-30T12:35:18.102Z,0.000000
2023-11-30T12:40:17.099Z,0.000000
2023-11-30T12:45:15.919Z,0.000000
2023-11-30T12:50:16.157Z,0.000000
2023-11-30T12:55:18.705Z,0.000000
2023-11-30T13:00:16.827Z,0.000000
2023-11-30T13:05:15.873Z,0.000000
2023-11-30T13:10:16.261Z,0.000000
2023-11-30T13:15:17.422Z,0.000000
2023-11-30T13:20:16.051Z,0.000000
2023-11-30T13:25:16.542Z,0.000000
2023-11-30T13:30:16.595Z,0.000000
2023-11-30T13:35:16.473Z,0.000000
2023-11-30T13:40:16.547Z,0.000000
2023-11-30T13:45:16.760Z,0.000000
2023-11-30T13:50:26.041Z,0.000000
2023-11-30T13:55:16.592Z,0.000000
2023-11-30T14:00:15.875Z,0.000000
2023-11-30T14:05:16.157Z,0.000000
2023-11-30T14:10:15.919Z,0.000000
2023-11-30T14:15:15.892Z,0.000000
2023-11-30T14:20:15.961Z,0.000000
2023-11-30T14:25:16.846Z,0.000000
2023-11-30T14:30:17.396Z,0.000000
2023-11-30T14:35:17.347Z,0.000000
2023-11-30T14:40:17.495Z,0.000000
2023-11-30T14:45:15.939Z,0.000000
2023-11-30T14:50:18.024Z,0.000000
2023-11-30T14:55:18.827Z,0.000000
2023-11-30T15:00:17.801Z,0.000000
2023-11-30T15:05:20.320Z,0.000000
2023-11-30T15:10:17.584Z,0.000000
2023-11-30T15:15:16.946Z,0.000000
2023-11-30T15:20:20.114Z,0.000000
2023-11-30T15:25:17.561Z,0.000000
2023-11-30T15:30:17.611Z,0.004513
2023-11-30T15:35:17.986Z,0.072932
2023-11-30T15:40:16.824Z,0.340021
2023-11-30T15:45:15.978Z,1.001740
2023-11-30T15:50:16.230Z,2.263337
2023-11-30T15:55:16.217Z,4.071976
2023-11-30T16:00:15.870Z,5.486935
2023-11-30T16:05:17.311Z,7.895609
2023-11-30T16:10:16.776Z,10.558385
2023-11-30T16:15:15.762Z,13.196474
2023-11-30T16:20:16.780Z,16.539071
2023-11-30T16:25:17.332Z,21.999521
2023-11-30T16:30:18.678Z,26.093083
2023-11-30T16:35:18.933Z,27.406880
2023-11-30T16:40:15.736Z,27.795932
2023-11-30T16:45:15.867Z,30.741830
2023-11-30T16:50:16.333Z,34.791849
2023-11-30T16:55:15.950Z,41.469483
2023-11-30T17:00:16.555Z,46.926947
2023-11-30T17:05:15.744Z,50.437929
2023-11-30T17:10:15.966Z,55.635123
2023-11-30T17:15:17.614Z,61.240488
2023-11-30T17:20:15.773Z,65.096200
2023-11-30T17:25:16.410Z,68.791625
2023-11-30T17:30:23.663Z,71.336650
2023-11-30T17:35:20.452Z,73.743711
2023-11-30T17:40:17.276Z,75.599033
2023-11-30T17:45:23.744Z,69.312898
2023-11-30T17:50:16.000Z,64.033393
2023-11-30T17:55:18.208Z,64.530475
2023-11-30T18:00:17.575Z,69.229159
2023-11-30T18:05:15.880Z,75.962031
2023-11-30T18:10:16.083Z,84.434965
2023-11-30T18:15:20.601Z,94.045170
2023-11-30T18:20:21.024Z,100.514420
2023-11-30T18:25:18.115Z,98.794181
2023-11-30T18:30:16.478Z,98.657269
2023-11-30T18:35:17.803Z,99.058345
2023-11-30T18:40:16.990Z,101.963555
2023-11-30T18:45:15.920Z,113.633851
2023-11-30T18:50:16.019Z,124.187400
2023-11-30T18:55:17.409Z,128.388672
2023-11-30T19:00:16.589Z,129.456291
2023-11-30T19:05:16.529Z,124.471436
2023-11-30T19:10:17.507Z,118.372682
2023-11-30T19:15:16.448Z,109.480865
2023-11-30T19:20:16.748Z,85.448474
2023-11-30T19:25:17.398Z,76.507021
2023-11-30T19:30:17.622Z,73.350968
2023-11-30T19:35:18.370Z,62.647445
2023-11-30T19:40:16.440Z,54.412596
2023-11-30T19:45:18.755Z,79.784354
2023-11-30T19:50:17.104Z,96.687265
2023-11-30T19:55:17.013Z,95.229679
2023-11-30T20:00:16.289Z,94.687219
2023-11-30T20:05:16.953Z,71.720481
2023-11-30T20:10:16.176Z,51.774287
2023-11-30T20:15:16.737Z,49.099492
2023-11-30T20:20:15.919Z,65.179450
2023-11-30T20:25:16.693Z,82.406219
2023-11-30T20:30:16.210Z,89.094867
2023-11-30T20:35:16.234Z,114.625839
2023-11-30T20:40:16.485Z,146.508309
2023-11-30T20:45:16.079Z,152.701349
2023-11-30T20:50:16.494Z,167.072589
2023-11-30T20:55:16.266Z,181.053606
2023-11-30T21:00:15.785Z,170.581648
2023-11-30T21:05:16.209Z,149.856670
2023-11-30T21:10:16.462Z,129.369017
2023-11-30T21:15:16.225Z,118.540414
2023-11-30T21:20:16.924Z,114.836056
2023-11-30T21:25:16.618Z,113.348976
2023-11-30T21:30:16.830Z,122.210135
2023-11-30T21:35:16.731Z,114.600645
2023-11-30T21:40:15.926Z,109.536370
2023-11-30T21:45:16.172Z,106.601899
2023-11-30T21:50:16.867Z,110.080051
2023-11-30T21:55:16.259Z,116.053475
2023-11-30T22:00:17.299Z,93.328726
2023-11-30T22:05:24.103Z,77.155543
2023-11-30T22:10:16.181Z,58.229420
2023-11-30T22:15:15.842Z,34.171858
2023-11-30T22:20:17.655Z,25.027059
2023-11-30T22:25:16.184Z,30.350406
2023-11-30T22:30:16.048Z,37.962983
2023-11-30T22:35:17.445Z,48.715504
2023-11-30T22:40:16.621Z,53.721727
2023-11-30T22:45:15.837Z,43.398622
2023-11-30T22:50:16.343Z,31.911464
2023-11-30T22:55:16.285Z,28.134832
2023-11-30T23:00:16.260Z,23.874685
2023-11-30T23:05:16.294Z,18.765348
2023-11-30T23:10:15.777Z,14.277251
2023-11-30T23:15:16.643Z,9.530299
2023-11-30T23:20:16.420Z,5.628218
2023-11-30T23:25:15.933Z,4.498837
2023-11-30T23:30:16.889Z,4.001348
2023-11-30T23:35:16.010Z,2.864860
2023-11-30T23:40:16.493Z,1.374895
2023-11-30T23:45:15.940Z,1.126977
2023-11-30T23:50:15.960Z,0.639369
2023-11-30T23:55:16.247Z,0.133304
